Time;durP1;ratioP1;P1;durP2;ratioP2;P2;SDS_P1;SDS_P2;PMS_P1;PMS_P2;Temp;Humidity;BMP_temperature;BMP_pressure;BME280_temperature;BME280_humidity;BME280_pressure;Samples;Min_cycle;Max_cycle;Signal;HPM_P1;HPM_P2
2022/07/18 00:02:09;;;;;;;;;;;13.30;98.20;;;;;;5015639;28;19964;-73
2022/07/18 00:04:37;;;;;;;;;;;13.40;98.40;;;;;;5015503;28;19922;-71
2022/07/18 00:07:03;;;;;;;;;;;13.30;97.60;;;;;;5015333;28;20364;-71
2022/07/18 00:09:30;;;;;;;;;;;13.40;98.40;;;;;;5015420;28;20008;-71
2022/07/18 00:11:57;;;;;;;;;;;13.40;97.80;;;;;;5015439;28;20286;-71
2022/07/18 00:14:24;;;;;;;;;;;13.50;97.30;;;;;;5015233;28;19909;-70
2022/07/18 00:16:50;;;;;;;;;;;13.50;97.80;;;;;;5015405;28;19925;-71
2022/07/18 00:19:17;;;;;;;;;;;13.50;97.50;;;;;;5015468;28;19910;-71
2022/07/18 00:21:44;;;;;;;;;;;13.60;97.50;;;;;;5014923;28;19917;-71
2022/07/18 00:24:11;;;;;;;;;;;13.60;97.10;;;;;;5014033;28;19914;-71
2022/07/18 00:26:37;;;;;;;;;;;13.60;97.00;;;;;;5014549;28;19910;-70
2022/07/18 00:29:04;;;;;;;;;;;13.60;96.90;;;;;;5014963;28;20387;-71
2022/07/18 00:31:31;;;;;;;;;;;13.70;96.90;;;;;;5015154;28;20303;-71
2022/07/18 00:33:58;;;;;;;;;;;13.70;96.80;;;;;;5015190;28;19909;-71
2022/07/18 00:36:24;;;;;;;;;;;13.70;96.70;;;;;;5015037;28;20004;-70
2022/07/18 00:38:51;;;;;;;;;;;13.70;95.10;;;;;;5014698;28;20457;-71
2022/07/18 00:41:18;;;;;;;;;;;13.50;95.30;;;;;;5014951;28;19971;-70
2022/07/18 00:43:44;;;;;;;;;;;13.60;95.90;;;;;;5014978;28;19920;-70
2022/07/18 00:46:11;;;;;;;;;;;13.60;95.20;;;;;;5014740;28;19963;-70
2022/07/18 00:48:42;;;;;;;;;;;13.60;96.10;;;;;;5014845;28;19909;-70
2022/07/18 00:51:09;;;;;;;;;;;13.60;95.70;;;;;;5014679;28;19971;-71
2022/07/18 00:53:36;;;;;;;;;;;13.60;94.70;;;;;;5014656;28;19909;-71
2022/07/18 00:56:03;;;;;;;;;;;13.60;94.60;;;;;;5014635;28;19975;-70
2022/07/18 00:58:30;;;;;;;;;;;13.60;94.90;;;;;;5014666;28;20342;-70
2022/07/18 01:03:42;;;;;;;;;;;13.60;94.60;;;;;;5014969;28;19964;-70
2022/07/18 01:06:09;;;;;;;;;;;13.70;94.30;;;;;;5014409;28;19971;-71
2022/07/18 01:08:37;;;;;;;;;;;13.80;94.20;;;;;;5014430;28;19997;-70
2022/07/18 01:11:04;;;;;;;;;;;14.10;93.90;;;;;;5014241;28;19917;-71
2022/07/18 01:13:31;;;;;;;;;;;14.30;93.80;;;;;;5014302;28;19910;-70
2022/07/18 01:15:58;;;;;;;;;;;14.50;93.30;;;;;;5014313;28;19972;-71
2022/07/18 01:18:24;;;;;;;;;;;14.50;92.90;;;;;;5014378;28;20339;-71
2022/07/18 01:20:51;;;;;;;;;;;14.50;93.40;;;;;;5013870;28;20266;-71
2022/07/18 01:23:18;;;;;;;;;;;14.70;93.30;;;;;;5014288;28;19910;-70
2022/07/18 01:25:45;;;;;;;;;;;14.90;93.40;;;;;;5014132;28;20406;-71
2022/07/18 01:28:12;;;;;;;;;;;14.70;92.80;;;;;;5013560;28;19910;-70
2022/07/18 01:30:39;;;;;;;;;;;14.30;92.90;;;;;;5013988;28;19913;-71
2022/07/18 01:33:06;;;;;;;;;;;14.10;93.40;;;;;;5013744;28;19931;-70
2022/07/18 01:35:33;;;;;;;;;;;14.10;93.50;;;;;;5013992;28;19910;-70
2022/07/18 01:38:01;;;;;;;;;;;13.90;93.70;;;;;;5013734;28;20386;-71
2022/07/18 01:40:28;;;;;;;;;;;13.90;93.40;;;;;;5013987;28;19953;-70
2022/07/18 01:42:54;;;;;;;;;;;13.80;93.50;;;;;;5013634;28;19925;-71
2022/07/18 01:45:21;;;;;;;;;;;13.90;93.60;;;;;;5013916;28;19910;-71
2022/07/18 01:47:48;;;;;;;;;;;13.90;93.60;;;;;;5013903;28;20382;-71
2022/07/18 01:50:16;;;;;;;;;;;14.00;94.10;;;;;;5014334;28;19948;-71
2022/07/18 01:52:42;;;;;;;;;;;14.00;93.40;;;;;;5013693;28;19909;-71
2022/07/18 01:55:10;;;;;;;;;;;13.90;93.80;;;;;;5013644;28;19914;-71
2022/07/18 01:57:37;;;;;;;;;;;13.90;93.80;;;;;;5013757;28;19917;-71
2022/07/18 02:00:08;;;;;;;;;;;14.00;94.40;;;;;;5013743;28;19909;-71
2022/07/18 02:02:34;;;;;;;;;;;14.00;95.20;;;;;;5013592;28;20445;-71
2022/07/18 02:05:02;;;;;;;;;;;14.10;94.40;;;;;;5013196;28;20004;-71
2022/07/18 02:07:39;;;;;;;;;;;14.10;94.00;;;;;;5013354;28;19925;-71
2022/07/18 02:10:07;;;;;;;;;;;14.20;93.80;;;;;;5028818;28;19910;-71
2022/07/18 02:12:34;;;;;;;;;;;14.10;93.90;;;;;;5013411;28;20004;-70
2022/07/18 02:15:01;;;;;;;;;;;14.10;93.60;;;;;;5013205;28;20326;-70
2022/07/18 02:17:28;;;;;;;;;;;14.00;94.00;;;;;;5013480;28;19956;-71
2022/07/18 02:19:54;;;;;;;;;;;13.80;93.80;;;;;;5013392;28;20379;-71
2022/07/18 02:22:21;;;;;;;;;;;13.70;94.20;;;;;;5013358;28;19910;-71
2022/07/18 02:24:48;;;;;;;;;;;13.70;95.00;;;;;;5013436;28;19918;-70
2022/07/18 02:27:14;;;;;;;;;;;13.80;95.90;;;;;;5013252;28;20356;-71
2022/07/18 02:29:41;;;;;;;;;;;13.80;95.40;;;;;;5012333;28;19960;-71
2022/07/18 02:32:08;;;;;;;;;;;13.80;95.60;;;;;;5013442;28;19909;-71
2022/07/18 02:34:35;;;;;;;;;;;13.70;95.70;;;;;;5013276;28;20279;-71
2022/07/18 02:37:02;;;;;;;;;;;13.60;95.50;;;;;;5012839;28;19971;-71
2022/07/18 02:39:28;;;;;;;;;;;13.60;96.00;;;;;;5016594;28;19913;-70
2022/07/18 02:41:55;;;;;;;;;;;13.60;95.70;;;;;;5017132;28;20350;-71
2022/07/18 02:44:22;;;;;;;;;;;13.60;95.50;;;;;;5017090;28;19909;-71
2022/07/18 02:46:49;;;;;;;;;;;13.70;95.60;;;;;;5017140;28;19960;-70
2022/07/18 02:49:28;;;;;;;;;;;13.70;95.50;;;;;;5016910;28;20346;-71
2022/07/18 02:51:55;;;;;;;;;;;13.70;95.40;;;;;;5016830;28;19939;-71
2022/07/18 02:54:22;;;;;;;;;;;13.70;95.20;;;;;;5016745;28;19913;-71
2022/07/18 02:56:49;;;;;;;;;;;13.70;95.00;;;;;;5016695;28;19921;-71
2022/07/18 02:59:16;;;;;;;;;;;13.70;95.40;;;;;;5016662;28;20431;-71
2022/07/18 03:01:42;;;;;;;;;;;13.70;95.20;;;;;;5016738;28;19914;-70
2022/07/18 03:04:09;;;;;;;;;;;13.80;95.40;;;;;;5016718;28;19962;-70
2022/07/18 03:06:36;;;;;;;;;;;13.80;95.10;;;;;;5016811;28;20115;-71
2022/07/18 03:09:03;;;;;;;;;;;13.90;93.70;;;;;;5016244;28;19910;-71
2022/07/18 03:11:30;;;;;;;;;;;13.80;93.40;;;;;;5016613;28;20008;-71
2022/07/18 03:13:57;;;;;;;;;;;13.80;93.40;;;;;;5016606;28;20487;-71
2022/07/18 03:16:24;;;;;;;;;;;13.70;94.20;;;;;;5016671;28;19918;-70
2022/07/18 03:18:51;;;;;;;;;;;13.80;93.60;;;;;;5016429;28;19910;-70
2022/07/18 03:21:17;;;;;;;;;;;13.80;93.40;;;;;;5016389;28;19964;-70
2022/07/18 03:23:44;;;;;;;;;;;13.80;93.10;;;;;;5016105;28;20260;-71
2022/07/18 03:26:11;;;;;;;;;;;13.80;92.90;;;;;;5016313;28;19910;-70
2022/07/18 03:28:37;;;;;;;;;;;13.60;93.00;;;;;;5016433;28;19963;-71
2022/07/18 03:31:04;;;;;;;;;;;13.50;92.90;;;;;;5016014;28;20224;-71
2022/07/18 03:33:31;;;;;;;;;;;13.50;92.70;;;;;;5016189;28;20394;-71
2022/07/18 03:35:58;;;;;;;;;;;13.50;93.00;;;;;;5016237;28;20356;-71
2022/07/18 03:38:24;;;;;;;;;;;13.50;93.00;;;;;;5014414;28;19924;-71
2022/07/18 03:40:51;;;;;;;;;;;13.60;92.60;;;;;;5015950;28;19953;-71
2022/07/18 03:43:18;;;;;;;;;;;13.60;92.10;;;;;;5016130;28;19909;-71
2022/07/18 03:45:44;;;;;;;;;;;13.60;91.90;;;;;;5016049;28;19967;-71
2022/07/18 03:48:11;;;;;;;;;;;13.60;92.20;;;;;;5015997;28;19932;-71
2022/07/18 03:50:38;;;;;;;;;;;13.60;91.90;;;;;;5015171;28;19913;-71
2022/07/18 03:53:04;;;;;;;;;;;13.60;91.90;;;;;;5015565;28;19938;-71
2022/07/18 03:55:31;;;;;;;;;;;13.60;92.00;;;;;;5015628;28;19917;-70
2022/07/18 03:57:58;;;;;;;;;;;13.60;91.80;;;;;;5015790;28;20032;-71
2022/07/18 04:00:24;;;;;;;;;;;13.60;92.00;;;;;;5015726;28;20284;-71
2022/07/18 04:02:51;;;;;;;;;;;13.70;92.20;;;;;;5015525;28;19918;-71
2022/07/18 04:05:18;;;;;;;;;;;13.70;91.70;;;;;;5015623;28;20387;-72
2022/07/18 04:07:45;;;;;;;;;;;13.60;92.00;;;;;;5015356;28;20009;-70
2022/07/18 04:10:11;;;;;;;;;;;13.60;92.30;;;;;;5015461;28;19952;-70
2022/07/18 04:12:54;;;;;;;;;;;13.60;91.30;;;;;;5015432;28;19910;-70
2022/07/18 04:15:23;;;;;;;;;;;13.60;92.00;;;;;;5015533;28;19910;-71
2022/07/18 04:17:50;;;;;;;;;;;13.60;92.70;;;;;;5015388;28;20390;-71
2022/07/18 04:20:17;;;;;;;;;;;13.60;92.20;;;;;;5015336;28;19988;-71
2022/07/18 04:22:48;;;;;;;;;;;13.60;91.40;;;;;;5015255;28;19917;-71
2022/07/18 04:25:15;;;;;;;;;;;13.70;91.80;;;;;;5015136;28;20376;-71
2022/07/18 04:27:42;;;;;;;;;;;13.70;91.50;;;;;;5015269;28;19957;-70
2022/07/18 04:30:09;;;;;;;;;;;13.70;91.40;;;;;;5015166;28;20343;-71
2022/07/18 04:32:35;;;;;;;;;;;13.70;91.90;;;;;;5015123;28;19953;-71
2022/07/18 04:35:02;;;;;;;;;;;13.70;91.80;;;;;;5014866;28;19909;-71
2022/07/18 04:37:32;;;;;;;;;;;13.70;91.20;;;;;;5014942;28;20330;-71
2022/07/18 04:39:59;;;;;;;;;;;13.70;91.20;;;;;;5014891;28;19955;-70
2022/07/18 04:42:26;;;;;;;;;;;13.70;91.10;;;;;;5015080;28;19948;-70
2022/07/18 04:44:53;;;;;;;;;;;13.70;91.10;;;;;;5014687;28;19937;-70
2022/07/18 04:47:20;;;;;;;;;;;13.70;90.80;;;;;;5014882;28;19917;-71
2022/07/18 04:49:46;;;;;;;;;;;13.70;90.40;;;;;;5014795;28;19914;-70
2022/07/18 04:52:13;;;;;;;;;;;13.60;90.20;;;;;;5014545;28;19909;-70
2022/07/18 04:54:40;;;;;;;;;;;13.60;90.60;;;;;;5014514;28;19916;-70
2022/07/18 04:57:06;;;;;;;;;;;13.60;90.40;;;;;;5014273;28;19918;-70
2022/07/18 04:59:33;;;;;;;;;;;13.60;90.70;;;;;;5014523;28;19909;-71
2022/07/18 05:02:00;;;;;;;;;;;13.60;91.00;;;;;;5013881;28;20344;-71
2022/07/18 05:04:27;;;;;;;;;;;13.70;90.90;;;;;;5014355;28;19957;-72
2022/07/18 05:06:53;;;;;;;;;;;13.70;90.80;;;;;;5014159;28;19914;-71
2022/07/18 05:09:20;;;;;;;;;;;13.60;90.50;;;;;;5014513;28;19910;-71
2022/07/18 05:11:47;;;;;;;;;;;13.60;90.40;;;;;;5014402;28;20314;-71
2022/07/18 05:14:13;;;;;;;;;;;13.60;91.20;;;;;;5014414;28;19992;-71
2022/07/18 05:16:40;;;;;;;;;;;13.70;90.90;;;;;;5014258;28;19920;-71
2022/07/18 05:19:07;;;;;;;;;;;13.70;90.80;;;;;;5014135;28;20279;-71
2022/07/18 05:21:33;;;;;;;;;;;13.70;90.70;;;;;;5014071;28;19914;-71
2022/07/18 05:24:00;;;;;;;;;;;13.70;91.10;;;;;;5014308;28;19956;-71
2022/07/18 05:26:27;;;;;;;;;;;13.70;90.70;;;;;;5014280;28;19916;-71
2022/07/18 05:28:53;;;;;;;;;;;13.70;91.60;;;;;;5014005;28;19917;-71
2022/07/18 05:31:20;;;;;;;;;;;13.70;90.60;;;;;;5014106;28;19964;-71
2022/07/18 05:33:47;;;;;;;;;;;13.60;91.10;;;;;;5013976;28;19917;-71
2022/07/18 05:36:13;;;;;;;;;;;13.60;92.20;;;;;;5013971;28;20280;-71
2022/07/18 05:38:40;;;;;;;;;;;13.60;91.10;;;;;;5014066;28;19955;-71
2022/07/18 05:41:07;;;;;;;;;;;13.60;90.10;;;;;;5013923;28;19917;-71
2022/07/18 05:43:34;;;;;;;;;;;13.60;90.20;;;;;;5013940;28;20263;-72
2022/07/18 05:46:01;;;;;;;;;;;13.60;90.30;;;;;;5013996;28;20367;-72
2022/07/18 05:48:27;;;;;;;;;;;13.60;90.50;;;;;;5013869;28;19909;-71
2022/07/18 05:50:54;;;;;;;;;;;13.60;90.10;;;;;;5013364;28;20352;-71
2022/07/18 05:53:21;;;;;;;;;;;13.60;90.10;;;;;;5013825;28;19909;-71
2022/07/18 05:55:47;;;;;;;;;;;13.50;89.50;;;;;;5013512;28;20352;-71
2022/07/18 05:58:14;;;;;;;;;;;13.40;89.40;;;;;;5013459;28;19914;-72
2022/07/18 06:00:41;;;;;;;;;;;13.40;90.40;;;;;;5013725;28;19914;-72
2022/07/18 06:03:08;;;;;;;;;;;13.40;90.40;;;;;;5013556;28;19971;-71
2022/07/18 06:05:34;;;;;;;;;;;13.40;91.10;;;;;;5013392;28;19953;-71
2022/07/18 06:08:01;;;;;;;;;;;13.40;91.70;;;;;;5013356;28;19956;-72
2022/07/18 06:10:28;;;;;;;;;;;13.30;92.80;;;;;;5011926;28;20287;-71
2022/07/18 06:12:55;;;;;;;;;;;13.30;93.20;;;;;;5014052;28;19910;-72
2022/07/18 06:15:22;;;;;;;;;;;13.30;92.90;;;;;;5017751;28;19932;-71
2022/07/18 06:17:49;;;;;;;;;;;13.20;93.00;;;;;;5017629;28;20346;-72
2022/07/18 06:20:16;;;;;;;;;;;13.20;93.00;;;;;;5017561;28;20252;-72
2022/07/18 06:22:43;;;;;;;;;;;13.20;93.10;;;;;;5017419;28;20418;-72
2022/07/18 06:25:10;;;;;;;;;;;13.10;93.10;;;;;;5017220;28;19910;-72
2022/07/18 06:27:36;;;;;;;;;;;13.10;93.20;;;;;;5017539;28;19909;-70
2022/07/18 06:30:04;;;;;;;;;;;13.10;93.50;;;;;;5017391;28;19909;-70
2022/07/18 06:32:31;;;;;;;;;;;13.10;94.70;;;;;;5017451;28;20280;-71
2022/07/18 06:34:57;;;;;;;;;;;13.10;93.00;;;;;;5017108;28;19909;-72
2022/07/18 06:37:24;;;;;;;;;;;13.00;92.80;;;;;;5017145;28;19917;-71
2022/07/18 06:39:51;;;;;;;;;;;13.00;93.30;;;;;;5017311;28;19913;-71
2022/07/18 06:42:17;;;;;;;;;;;13.00;93.10;;;;;;5017119;28;19995;-72
2022/07/18 06:44:44;;;;;;;;;;;12.90;93.70;;;;;;5017144;28;19914;-72
2022/07/18 06:47:11;;;;;;;;;;;12.90;93.90;;;;;;5016956;28;20323;-72
2022/07/18 06:49:38;;;;;;;;;;;12.90;93.20;;;;;;5017147;28;19956;-71
2022/07/18 06:52:04;;;;;;;;;;;12.80;92.80;;;;;;5016849;28;19916;-70
2022/07/18 06:54:33;;;;;;;;;;;12.80;93.20;;;;;;5016800;28;20259;-70
2022/07/18 06:56:59;;;;;;;;;;;12.80;93.60;;;;;;5016615;28;19921;-70
2022/07/18 06:59:26;;;;;;;;;;;12.70;93.60;;;;;;5015499;28;19955;-70
2022/07/18 07:01:53;;;;;;;;;;;12.70;93.70;;;;;;5016742;28;19910;-71
2022/07/18 07:04:19;;;;;;;;;;;12.70;93.50;;;;;;5016484;28;19921;-71
2022/07/18 07:06:46;;;;;;;;;;;12.60;93.20;;;;;;5016445;28;19913;-72
2022/07/18 07:09:13;;;;;;;;;;;12.60;93.40;;;;;;5016341;28;20367;-71
2022/07/18 07:11:40;;;;;;;;;;;12.60;94.20;;;;;;5015275;28;19910;-71
2022/07/18 07:14:06;;;;;;;;;;;12.60;93.90;;;;;;5016343;28;19909;-71
2022/07/18 07:16:33;;;;;;;;;;;12.60;94.40;;;;;;5016331;28;20004;-71
2022/07/18 07:19:00;;;;;;;;;;;12.50;95.30;;;;;;5016302;28;19917;-71
2022/07/18 07:21:26;;;;;;;;;;;12.50;93.90;;;;;;5016114;28;20384;-71
2022/07/18 07:23:53;;;;;;;;;;;12.50;94.00;;;;;;5015776;28;19909;-71
2022/07/18 07:26:20;;;;;;;;;;;12.40;94.20;;;;;;5015737;28;19909;-71
2022/07/18 07:28:47;;;;;;;;;;;12.40;95.20;;;;;;5016204;28;20406;-71
2022/07/18 07:31:13;;;;;;;;;;;12.40;94.10;;;;;;5016150;28;20274;-71
2022/07/18 07:33:40;;;;;;;;;;;12.30;94.30;;;;;;5016181;28;19916;-71
2022/07/18 07:36:07;;;;;;;;;;;12.20;93.80;;;;;;5015781;28;19913;-71
2022/07/18 07:38:34;;;;;;;;;;;12.20;94.00;;;;;;5015913;28;19960;-72
2022/07/18 07:41:01;;;;;;;;;;;12.20;94.30;;;;;;5015947;28;20000;-71
2022/07/18 07:43:28;;;;;;;;;;;12.10;95.00;;;;;;5015861;28;19909;-72
2022/07/18 07:45:55;;;;;;;;;;;12.10;94.90;;;;;;5015740;28;19909;-71
2022/07/18 07:48:23;;;;;;;;;;;12.10;94.40;;;;;;5015745;28;20001;-71
2022/07/18 07:50:50;;;;;;;;;;;12.10;95.20;;;;;;5015554;28;19916;-70
2022/07/18 07:53:17;;;;;;;;;;;12.10;95.10;;;;;;5016022;28;20322;-71
2022/07/18 07:55:44;;;;;;;;;;;12.10;95.30;;;;;;5015730;28;20347;-70
2022/07/18 07:58:11;;;;;;;;;;;12.00;95.00;;;;;;5015662;28;19913;-71
2022/07/18 08:00:38;;;;;;;;;;;12.00;95.60;;;;;;5015609;28;20437;-70
2022/07/18 08:03:05;;;;;;;;;;;12.00;95.50;;;;;;5015253;28;19909;-70
2022/07/18 08:05:37;;;;;;;;;;;12.00;94.80;;;;;;5015433;28;20299;-70
2022/07/18 08:08:05;;;;;;;;;;;12.00;95.80;;;;;;5015602;28;19916;-70
2022/07/18 08:10:31;;;;;;;;;;;11.90;95.70;;;;;;5015460;28;19964;-70
2022/07/18 08:12:58;;;;;;;;;;;11.90;95.40;;;;;;5015200;28;19974;-71
2022/07/18 08:15:25;;;;;;;;;;;11.80;95.10;;;;;;5015245;28;19945;-71
2022/07/18 08:17:55;;;;;;;;;;;11.90;95.40;;;;;;5015252;28;19918;-70
2022/07/18 08:20:22;;;;;;;;;;;11.90;95.70;;;;;;5030267;28;19913;-70
2022/07/18 08:22:52;;;;;;;;;;;11.80;95.70;;;;;;5012962;28;19936;-71
2022/07/18 08:25:20;;;;;;;;;;;11.90;96.20;;;;;;5015217;28;19913;-71
2022/07/18 08:27:47;;;;;;;;;;;11.80;96.30;;;;;;5014964;28;19914;-72
2022/07/18 08:30:14;;;;;;;;;;;11.80;95.80;;;;;;5014484;28;20349;-72
2022/07/18 08:32:40;;;;;;;;;;;11.80;96.00;;;;;;5015145;28;19909;-72
2022/07/18 08:35:07;;;;;;;;;;;11.70;95.60;;;;;;5014734;28;20344;-71
2022/07/18 08:37:34;;;;;;;;;;;11.70;95.50;;;;;;5014582;28;20379;-71
2022/07/18 08:40:01;;;;;;;;;;;11.60;95.50;;;;;;5014917;28;19914;-71
2022/07/18 08:42:27;;;;;;;;;;;11.60;95.40;;;;;;5014681;28;19916;-72
2022/07/18 08:44:55;;;;;;;;;;;11.50;95.60;;;;;;5013686;28;19909;-72
2022/07/18 08:47:23;;;;;;;;;;;11.50;95.90;;;;;;5014902;28;19952;-71
2022/07/18 08:49:50;;;;;;;;;;;11.60;96.40;;;;;;5014861;28;19909;-71
2022/07/18 08:52:17;;;;;;;;;;;11.50;95.80;;;;;;5014737;28;19916;-72
2022/07/18 08:54:43;;;;;;;;;;;11.60;96.10;;;;;;4997019;28;19918;-71
2022/07/18 08:57:10;;;;;;;;;;;11.50;96.40;;;;;;5014328;28;20013;-72
2022/07/18 08:59:37;;;;;;;;;;;11.50;96.20;;;;;;5014617;28;20351;-71
2022/07/18 09:02:03;;;;;;;;;;;11.40;96.30;;;;;;5014357;28;19931;-71
2022/07/18 09:04:34;;;;;;;;;;;11.40;96.40;;;;;;5014143;28;20052;-71
2022/07/18 09:07:01;;;;;;;;;;;11.40;96.20;;;;;;5013973;28;19920;-71
2022/07/18 09:09:28;;;;;;;;;;;11.30;96.50;;;;;;5014189;28;20283;-72
2022/07/18 09:11:59;;;;;;;;;;;11.40;96.70;;;;;;5014394;28;19910;-72
2022/07/18 09:14:29;;;;;;;;;;;11.30;96.90;;;;;;5014322;28;19941;-72
2022/07/18 09:17:03;;;;;;;;;;;11.30;96.40;;;;;;5013994;28;19918;-72
2022/07/18 09:19:30;;;;;;;;;;;11.40;96.90;;;;;;5014099;28;19909;-71
2022/07/18 09:22:15;;;;;;;;;;;11.40;97.40;;;;;;5014083;28;19910;-72
2022/07/18 09:24:53;;;;;;;;;;;11.40;97.30;;;;;;5014362;28;19996;-72
2022/07/18 09:27:30;;;;;;;;;;;11.30;98.00;;;;;;5014163;28;19917;-72
2022/07/18 09:30:09;;;;;;;;;;;11.40;97.10;;;;;;5014146;28;20279;-71
2022/07/18 09:32:36;;;;;;;;;;;11.30;97.20;;;;;;5014047;28;19909;-71
2022/07/18 09:35:06;;;;;;;;;;;11.40;96.70;;;;;;5013732;28;19916;-72
2022/07/18 09:37:33;;;;;;;;;;;11.30;96.70;;;;;;5013976;28;19964;-72
2022/07/18 09:40:18;;;;;;;;;;;11.30;96.90;;;;;;5013811;28;20386;-70
2022/07/18 09:42:55;;;;;;;;;;;11.20;97.10;;;;;;5013949;28;19933;-70
2022/07/18 09:45:23;;;;;;;;;;;11.20;97.20;;;;;;5013684;28;19992;-71
2022/07/18 09:47:57;;;;;;;;;;;11.20;96.60;;;;;;5013145;28;20347;-70
2022/07/18 09:50:32;;;;;;;;;;;11.10;96.60;;;;;;5013704;28;19910;-70
2022/07/18 09:52:59;;;;;;;;;;;11.10;97.10;;;;;;5013712;28;19916;-71
2022/07/18 09:55:26;;;;;;;;;;;11.10;97.20;;;;;;5013688;28;19910;-71
2022/07/18 09:58:06;;;;;;;;;;;11.20;97.10;;;;;;5013669;28;19972;-71
2022/07/18 10:00:36;;;;;;;;;;;11.20;97.00;;;;;;5013520;28;20252;-71
2022/07/18 10:03:04;;;;;;;;;;;11.10;96.60;;;;;;5013420;28;19916;-71
2022/07/18 10:05:35;;;;;;;;;;;11.00;96.60;;;;;;5013194;28;19925;-71
2022/07/18 10:08:03;;;;;;;;;;;11.00;97.00;;;;;;5013558;28;20314;-70
2022/07/18 10:10:30;;;;;;;;;;;11.00;96.90;;;;;;5013553;28;19910;-71
2022/07/18 10:12:58;;;;;;;;;;;11.00;97.60;;;;;;5013334;28;19956;-70
2022/07/18 10:15:27;;;;;;;;;;;11.00;96.90;;;;;;5013573;28;19910;-71
2022/07/18 10:17:54;;;;;;;;;;;10.90;96.90;;;;;;5013311;28;19921;-70
2022/07/18 10:20:29;;;;;;;;;;;10.90;96.90;;;;;;5013142;28;19909;-72
2022/07/18 10:22:57;;;;;;;;;;;10.90;97.00;;;;;;5013237;28;19916;-71
2022/07/18 10:25:24;;;;;;;;;;;10.90;97.20;;;;;;5011434;28;19917;-71
2022/07/18 10:28:01;;;;;;;;;;;10.90;96.70;;;;;;5010573;28;20348;-72
2022/07/18 10:30:32;;;;;;;;;;;10.90;96.90;;;;;;5011253;28;20280;-72
2022/07/18 10:33:00;;;;;;;;;;;10.90;96.80;;;;;;5010930;28;19913;-71
2022/07/18 10:35:44;;;;;;;;;;;10.90;96.90;;;;;;5011089;28;20004;-72
2022/07/18 10:38:21;;;;;;;;;;;10.90;97.50;;;;;;5010612;28;19922;-71
2022/07/18 10:41:07;;;;;;;;;;;10.90;97.30;;;;;;5010880;28;19910;-72
2022/07/18 10:43:36;;;;;;;;;;;10.80;97.70;;;;;;5011113;28;20374;-72
2022/07/18 10:46:03;;;;;;;;;;;10.80;97.10;;;;;;5011076;28;19909;-71
2022/07/18 10:48:33;;;;;;;;;;;10.80;97.90;;;;;;5011069;28;20385;-71
2022/07/18 10:51:00;;;;;;;;;;;10.90;97.70;;;;;;5010664;28;19914;-71
2022/07/18 10:53:45;;;;;;;;;;;10.70;97.50;;;;;;5010557;28;19917;-71
2022/07/18 10:56:12;;;;;;;;;;;10.80;97.40;;;;;;5010939;28;19913;-71
2022/07/18 10:58:40;;;;;;;;;;;10.70;97.40;;;;;;5011603;28;20435;-71
2022/07/18 11:01:10;;;;;;;;;;;10.60;97.50;;;;;;5014639;28;19910;-71
2022/07/18 11:03:37;;;;;;;;;;;10.60;97.60;;;;;;5014965;28;20265;-72
2022/07/18 11:06:04;;;;;;;;;;;10.60;98.10;;;;;;5016814;28;20303;-72
2022/07/18 11:08:33;;;;;;;;;;;10.60;97.60;;;;;;5016306;28;19910;-71
2022/07/18 11:11:02;;;;;;;;;;;10.50;97.50;;;;;;5014875;28;20012;-72
2022/07/18 11:13:30;;;;;;;;;;;10.50;97.70;;;;;;5014827;28;19925;-72
2022/07/18 11:15:59;;;;;;;;;;;10.50;98.00;;;;;;5014575;28;20490;-72
2022/07/18 11:18:25;;;;;;;;;;;10.50;97.40;;;;;;5014153;28;19914;-72
2022/07/18 11:20:52;;;;;;;;;;;10.40;97.50;;;;;;5014185;28;19909;-72
2022/07/18 11:23:23;;;;;;;;;;;10.40;98.10;;;;;;5014099;28;19931;-72
2022/07/18 11:25:56;;;;;;;;;;;10.40;97.60;;;;;;5014351;28;19913;-72
2022/07/18 11:28:27;;;;;;;;;;;10.40;98.20;;;;;;5014473;28;19913;-72
2022/07/18 11:31:04;;;;;;;;;;;10.40;97.30;;;;;;5014124;28;19914;-72
2022/07/18 11:33:32;;;;;;;;;;;10.40;97.80;;;;;;5014748;28;19925;-71
2022/07/18 11:36:11;;;;;;;;;;;10.40;97.90;;;;;;5014052;28;19909;-72
2022/07/18 11:38:39;;;;;;;;;;;10.30;97.40;;;;;;5013639;28;19996;-72
2022/07/18 11:41:05;;;;;;;;;;;10.30;97.50;;;;;;5013960;28;19913;-72
2022/07/18 11:43:33;;;;;;;;;;;10.30;98.10;;;;;;4996419;28;19971;-71
2022/07/18 11:46:09;;;;;;;;;;;10.40;97.80;;;;;;5013624;28;19921;-72
2022/07/18 11:48:37;;;;;;;;;;;10.40;97.60;;;;;;5014068;28;19913;-72
2022/07/18 11:51:24;;;;;;;;;;;10.40;98.00;;;;;;5013590;28;19910;-72
2022/07/18 11:53:52;;;;;;;;;;;10.40;97.20;;;;;;5015200;28;19932;-72
2022/07/18 11:56:20;;;;;;;;;;;10.50;98.30;;;;;;5015815;28;19920;-72
2022/07/18 11:58:48;;;;;;;;;;;10.40;97.60;;;;;;5015950;28;19920;-71
2022/07/18 12:01:15;;;;;;;;;;;10.40;98.10;;;;;;5015559;28;19909;-71
2022/07/18 12:03:44;;;;;;;;;;;10.40;98.10;;;;;;5015764;28;20260;-71
2022/07/18 12:06:12;;;;;;;;;;;10.40;97.70;;;;;;5015374;28;19921;-71
2022/07/18 12:08:43;;;;;;;;;;;10.30;98.10;;;;;;5015160;28;19971;-71
2022/07/18 12:11:17;;;;;;;;;;;10.30;98.70;;;;;;5014791;28;19910;-71
2022/07/18 12:13:48;;;;;;;;;;;10.30;98.60;;;;;;5015751;28;19916;-71
2022/07/18 12:16:33;;;;;;;;;;;10.30;98.40;;;;;;5015319;28;19918;-71
2022/07/18 12:19:03;;;;;;;;;;;10.30;98.10;;;;;;5015208;28;19992;-71
2022/07/18 12:21:45;;;;;;;;;;;10.30;98.50;;;;;;5015397;28;19913;-71
2022/07/18 12:24:19;;;;;;;;;;;10.30;98.00;;;;;;5014706;28;20244;-71
2022/07/18 12:26:46;;;;;;;;;;;10.30;98.40;;;;;;5015312;28;20359;-71
2022/07/18 12:29:12;;;;;;;;;;;10.30;98.30;;;;;;5014955;28;20359;-71
2022/07/18 12:31:43;;;;;;;;;;;10.30;98.50;;;;;;5015086;28;19913;-71
2022/07/18 12:34:14;;;;;;;;;;;10.30;98.60;;;;;;5014995;28;20288;-71
2022/07/18 12:36:51;;;;;;;;;;;10.40;98.30;;;;;;5015202;28;19922;-72
2022/07/18 12:39:33;;;;;;;;;;;10.30;98.40;;;;;;5015086;28;19916;-72
2022/07/18 12:42:00;;;;;;;;;;;10.20;98.40;;;;;;5015059;28;19915;-72
2022/07/18 12:44:28;;;;;;;;;;;10.20;98.90;;;;;;5015013;28;19909;-72
2022/07/18 12:46:55;;;;;;;;;;;10.20;98.90;;;;;;5014730;28;19979;-72
2022/07/18 12:49:22;;;;;;;;;;;10.20;98.50;;;;;;5014863;28;19910;-72
2022/07/18 12:51:50;;;;;;;;;;;10.20;98.90;;;;;;5014389;28;20005;-71
2022/07/18 12:54:17;;;;;;;;;;;10.30;98.70;;;;;;5014817;28;20387;-71
2022/07/18 12:56:44;;;;;;;;;;;10.30;98.60;;;;;;5014681;28;19917;-72
2022/07/18 12:59:10;;;;;;;;;;;10.30;98.70;;;;;;5014457;28;19909;-72
2022/07/18 13:01:37;;;;;;;;;;;10.30;98.70;;;;;;5014709;28;19910;-71
2022/07/18 13:04:04;;;;;;;;;;;10.20;98.80;;;;;;5014427;28;19910;-72
2022/07/18 13:06:31;;;;;;;;;;;10.20;99.00;;;;;;5014376;28;19917;-72
2022/07/18 13:08:58;;;;;;;;;;;10.10;99.20;;;;;;5014521;28;19916;-72
2022/07/18 13:11:25;;;;;;;;;;;10.10;99.50;;;;;;5014486;28;19910;-72
2022/07/18 13:13:52;;;;;;;;;;;10.10;99.60;;;;;;5014508;28;19966;-71
2022/07/18 13:16:18;;;;;;;;;;;10.10;99.60;;;;;;5014424;28;19948;-72
2022/07/18 13:18:45;;;;;;;;;;;10.20;99.60;;;;;;5014307;28;19909;-72
2022/07/18 13:21:12;;;;;;;;;;;10.20;99.80;;;;;;5014137;28;19913;-72
2022/07/18 13:23:39;;;;;;;;;;;10.10;99.40;;;;;;5013486;28;20401;-71
2022/07/18 13:26:06;;;;;;;;;;;10.10;99.60;;;;;;5014357;28;19922;-71
2022/07/18 13:28:32;;;;;;;;;;;10.20;99.60;;;;;;5014325;28;19945;-71
2022/07/18 13:30:59;;;;;;;;;;;10.30;99.80;;;;;;5013958;28;19914;-72
2022/07/18 13:33:26;;;;;;;;;;;10.20;99.70;;;;;;5014105;28;19910;-71
2022/07/18 13:35:52;;;;;;;;;;;10.30;99.90;;;;;;5014120;28;19909;-72
2022/07/18 13:38:19;;;;;;;;;;;10.20;99.80;;;;;;5014161;28;19917;-72
2022/07/18 13:40:46;;;;;;;;;;;10.20;99.90;;;;;;5014126;28;19945;-71
2022/07/18 13:43:13;;;;;;;;;;;10.40;99.90;;;;;;5013874;28;19999;-72
2022/07/18 13:45:39;;;;;;;;;;;10.30;99.90;;;;;;5014101;28;19920;-71
2022/07/18 13:48:06;;;;;;;;;;;10.40;99.90;;;;;;5013926;28;20257;-70
2022/07/18 13:50:33;;;;;;;;;;;10.40;99.90;;;;;;5013855;28;20253;-70
2022/07/18 13:53:00;;;;;;;;;;;10.30;99.90;;;;;;5013693;28;19914;-71
2022/07/18 13:55:26;;;;;;;;;;;10.40;99.90;;;;;;5013960;28;19916;-70
2022/07/18 13:57:53;;;;;;;;;;;10.20;99.90;;;;;;5013839;28;20253;-70
2022/07/18 14:00:20;;;;;;;;;;;10.20;99.90;;;;;;5013790;28;20047;-71
2022/07/18 14:02:46;;;;;;;;;;;10.20;99.90;;;;;;5013801;28;19909;-71
2022/07/18 14:05:13;;;;;;;;;;;10.20;99.90;;;;;;5013259;28;19921;-72
2022/07/18 14:07:40;;;;;;;;;;;10.20;99.90;;;;;;5013730;28;19909;-71
2022/07/18 14:10:07;;;;;;;;;;;10.20;99.90;;;;;;5013837;28;19945;-72
2022/07/18 14:12:34;;;;;;;;;;;10.20;99.90;;;;;;5013728;28;19914;-72
2022/07/18 14:15:01;;;;;;;;;;;10.10;99.90;;;;;;5013506;28;19944;-72
2022/07/18 14:17:29;;;;;;;;;;;10.00;99.90;;;;;;5013591;28;20438;-72
2022/07/18 14:19:56;;;;;;;;;;;10.00;99.90;;;;;;5013472;28;19909;-72
2022/07/18 14:22:23;;;;;;;;;;;10.00;99.90;;;;;;5013561;28;19909;-72
2022/07/18 14:24:50;;;;;;;;;;;10.00;99.90;;;;;;5013677;28;19920;-73